Ana Sayfa
METAR-TAF:

METAR-TAF

Havaalanları :

Biak, Endonezya

Enlem: 01-11S, Boylam: 136-07E, yükseklik: 11 m

Güncel hava durumu gözlemi

Rapor saat 23:00 UTC de 1 saat ve 4 dakika önce yapıldı.
Rüzgar kuzeydoğudan 4 kt
Sıcaklık 29°C
Nem 84%
Basınç 1010 hPa
Görüş mesafesi 10 km veya daha fazla
1800 ft yükseklikte az bulutlu

METAR: WABB 122300Z 04004KT 9999 FEW018 29/26 Q1010 NOSIG

Saat: 07:04 (00:04 UTC)

Tahmin

Rapor saat 23:00 UTC de 1 saat ve 4 dakika önce yapıldı.
Ayın 13'si saat 00 UTC'den ayın 14'si saat 06 UTC'ye kadar geçerli Tahmin
Rüzgar güneydoğudan 5 kt
Görüş mesafesi 10 km veya daha fazla
1800 ft yükseklikte parçalı bulutlu
Dönüşüyor
ayın 13'si saat 10 UTC'den ayın 13'si saat 12 UTC'ye kadar
Rüzgar kuzeydan kt

TAF: WABB 122300Z 1300/1406 14005KT 9999 SCT018 BECMG 1310/1312 00000KT

4.000'den fazla havaalanı için hava durumu gözlemleri ve tahminleri (METAR ve TAF raporları).

Kullanılabilir istasyonlar harita üzerinde sarı ve kırmızı noktalarla gösterilir.

İstasyonun adını görmek için fareyi noktanın üzerinde gezdirin.

Sonrasında hava gözlem ve tahminlerini görmek için tıklayın.

Haritayı değiştirmek için: yaklaştırmak için siyah artı işaretli yeşil düğmeye ve uzaklaştırmak için de eksi işaretli düğmeye hızla tıklayın; bitişik haritalar için yeşil okları kullanın.


METAR-TAF: